Grafton, Illinois
Current Conditions -  °F | °C
As of 3:54 AM on Sunday 25 Jan 2015 (Local Time) from KSET Reporting Station
Light Rain Light Rain  
Wind Chill: 40°   Ceiling: 4300
Heat Index: 44°   Visibility: 10mi
Dew Point: 39°   Wind: 8mph
Humidity: 82%   Direction: 230°SW
Pressure: 29.62"   Gusts: NA
Location:  38.97°N, 90.43°W
Report Text: KSET 250954Z AUTO 23007KT 10SM -RA BKN043 OVC050 07/04 A2962 RMK AO2 RAB22 SLP028 P0000 T00670039
Loading
Personal Weather Stations






























Interactive Weather Map New forecast layout! Learn more

10-Day Weather Forecast

Advertisements
Track Severe Weather on mobile